Decoded Metar for LFOC (CHATEAUDUN in FRANCE) (IATA:N/A) | Meteo·Mobile Aviation Weather
aviador You're here:

LFOC Decoded Metar

CHATEAUDUN in FRANCE
Report Time2019-07-16 10:30:00
UTC Time2019-07-16 10:52:25
Flight Rules vfr VFR
WindVRB at 02 kt
Visibility9999 m
Phenomena:N/A
Clouds:N/A
Expected CloudBase > 4,800 ft AGL from Temp-Dew spread
CeilingNone
Temp23°C (ISA +9)
Dew Point11°C (47% RH)
AAT22.6°C
QNH1019 hPa
Density Alt1,421 ft
Elevation417 ft
Report Wrong Elevation
Raw Report
METAR LFOC 161030Z AUTO VRB02KT CAVOK 23/11 Q1019 NOSIG=

Extra information for LFOC:More info

Metar Taf Metar & Taf Last 4 Metars F.Rules Stats Wind Profile Meteogram Temp Stats Airport Information Weather charts Add Link Nearby VenuesMetar ALERT Operation Metar Decoded Social comments